Time;durP1;ratioP1;P1;durP2;ratioP2;P2;SDS_P1;SDS_P2;PMS_P1;PMS_P2;Temp;Humidity;BMP_temperature;BMP_pressure;BME280_temperature;BME280_humidity;BME280_pressure;Samples;Min_cycle;Max_cycle;Signal;HPM_P1;HPM_P2
2023/02/14 00:01:16;;;;;;;11.63;5.83;;;5.10;99.90;;;;;;5052951;28;20029;-53
2023/02/14 00:03:42;;;;;;;9.40;5.70;;;5.10;99.90;;;;;;5052743;28;20029;-51
2023/02/14 00:06:11;;;;;;;12.80;6.40;;;5.00;99.90;;;;;;5052923;28;20029;-51
2023/02/14 00:08:38;;;;;;;9.82;5.65;;;4.90;99.90;;;;;;5052779;28;20078;-53
2023/02/14 00:11:04;;;;;;;10.57;5.83;;;4.90;99.90;;;;;;5052742;28;20024;-52
2023/02/14 00:13:30;;;;;;;12.50;5.73;;;4.80;99.90;;;;;;5052572;28;20025;-54
2023/02/14 00:15:55;;;;;;;14.13;6.80;;;4.80;99.90;;;;;;5052758;28;20029;-52
2023/02/14 00:18:21;;;;;;;11.53;5.80;;;4.90;99.90;;;;;;5052611;28;20286;-52
2023/02/14 00:20:47;;;;;;;11.17;5.80;;;5.00;99.90;;;;;;5052503;28;20064;-53
2023/02/14 00:23:13;;;;;;;10.83;6.10;;;5.10;99.90;;;;;;5052694;28;20041;-50
2023/02/14 00:25:39;;;;;;;12.63;5.93;;;5.20;99.90;;;;;;5051337;28;20029;-52
2023/02/14 00:28:04;;;;;;;10.07;5.60;;;5.20;99.90;;;;;;5052206;28;20033;-52
2023/02/14 00:30:30;;;;;;;14.90;6.40;;;5.30;99.90;;;;;;5052472;28;20228;-48
2023/02/14 00:32:56;;;;;;;13.83;5.90;;;5.30;99.90;;;;;;5052295;28;20029;-53
2023/02/14 00:35:21;;;;;;;10.93;6.40;;;5.40;99.90;;;;;;5050760;28;20496;-53
2023/02/14 00:37:47;;;;;;;13.77;6.93;;;5.30;99.90;;;;;;5051831;28;20032;-53
2023/02/14 00:40:13;;;;;;;15.03;6.90;;;5.20;99.90;;;;;;5051190;28;20500;-54
2023/02/14 00:42:39;;;;;;;12.17;5.70;;;5.10;99.90;;;;;;5050851;28;20049;-55
2023/02/14 00:45:05;;;;;;;11.83;6.00;;;4.90;99.90;;;;;;5051918;28;20107;-55
2023/02/14 00:47:31;;;;;;;11.67;5.80;;;4.80;99.90;;;;;;5051870;28;20025;-55
2023/02/14 00:50:01;;;;;;;13.03;6.40;;;4.80;99.90;;;;;;5051895;28;20374;-52
2023/02/14 00:52:29;;;;;;;11.50;6.00;;;4.90;99.90;;;;;;5052150;28;20025;-55
2023/02/14 00:54:56;;;;;;;;;;;4.90;99.90;;;;;;5050934;28;20056;-55
2023/02/14 00:57:23;;;;;;;10.87;5.97;;;4.90;99.90;;;;;;5051829;28;19944;-52
2023/02/14 00:59:49;;;;;;;12.07;6.03;;;5.00;99.90;;;;;;5051902;28;20114;-55
2023/02/14 01:02:14;;;;;;;10.07;5.20;;;5.00;99.90;;;;;;5051525;28;20052;-53
2023/02/14 01:04:40;;;;;;;13.43;6.10;;;5.00;99.90;;;;;;5051604;28;20036;-52
2023/02/14 01:07:06;;;;;;;12.20;5.77;;;5.00;99.90;;;;;;5051750;28;20028;-51
2023/02/14 01:09:31;;;;;;;10.63;5.37;;;5.00;99.90;;;;;;5050332;28;20063;-55
2023/02/14 01:12:01;;;;;;;11.13;6.05;;;5.00;99.90;;;;;;5051612;28;20478;-55
2023/02/14 01:14:26;;;;;;;11.73;5.90;;;5.00;99.90;;;;;;5051470;28;20068;-56
2023/02/14 01:16:52;;;;;;;10.73;5.77;;;4.90;99.90;;;;;;5051298;28;20071;-53
2023/02/14 01:19:18;;;;;;;10.77;5.70;;;4.80;99.90;;;;;;5051493;28;20477;-50
2023/02/14 01:21:44;;;;;;;9.87;5.53;;;4.70;99.90;;;;;;5050213;28;20074;-49
2023/02/14 01:24:11;;;;;;;12.17;5.60;;;4.60;99.90;;;;;;5051332;28;20051;-54
2023/02/14 01:26:37;;;;;;;11.03;5.57;;;4.60;99.90;;;;;;5051203;28;20033;-48
2023/02/14 01:29:04;;;;;;;11.47;5.13;;;4.60;99.90;;;;;;5049953;28;20091;-53
2023/02/14 01:31:31;;;;;;;10.40;5.63;;;4.50;99.90;;;;;;5051107;28;20397;-52
2023/02/14 01:33:58;;;;;;;9.97;5.40;;;4.50;99.90;;;;;;5051097;28;20029;-51
2023/02/14 01:36:28;;;;;;;11.57;5.30;;;4.50;99.90;;;;;;5051004;28;20028;-51
2023/02/14 01:38:58;;;;;;;9.77;5.20;;;4.40;99.90;;;;;;5051302;28;20025;-55
2023/02/14 01:41:25;;;;;;;12.07;5.50;;;4.40;99.90;;;;;;5049903;28;20430;-54
2023/02/14 01:43:57;;;;;;;12.95;6.00;;;4.50;99.90;;;;;;5049534;28;20417;-54
2023/02/14 01:46:25;;;;;;;11.63;5.67;;;4.60;99.90;;;;;;5050869;28;20041;-55
2023/02/14 01:48:55;;;;;;;12.17;6.50;;;4.70;99.90;;;;;;5049595;28;20021;-55
2023/02/14 01:51:22;;;;;;;10.33;5.87;;;4.70;99.90;;;;;;5050110;28;20129;-53
2023/02/14 01:53:48;;;;;;;11.43;6.17;;;4.70;99.90;;;;;;5051139;28;20037;-51
2023/02/14 01:56:23;;;;;;;11.80;5.90;;;4.80;99.90;;;;;;5049497;28;20405;-53
2023/02/14 01:58:52;;;;;;;11.73;6.60;;;4.90;99.90;;;;;;5049439;28;20509;-56
2023/02/14 02:01:18;;;;;;;9.47;5.50;;;5.00;99.90;;;;;;5050523;28;20131;-53
2023/02/14 02:03:49;;;;;;;9.33;5.40;;;5.00;99.90;;;;;;5049253;28;20390;-50
2023/02/14 02:06:27;;;;;;;11.20;5.77;;;5.00;99.90;;;;;;5050639;28;20075;-56
2023/02/14 02:09:15;;;;;;;10.10;5.30;;;5.10;99.90;;;;;;5050620;28;20090;-54
2023/02/14 02:11:42;;;;;;;10.87;5.23;;;5.10;99.90;;;;;;5050653;28;20017;-51
2023/02/14 02:14:16;;;;;;;10.67;6.00;;;5.10;99.90;;;;;;5050332;28;20555;-50
2023/02/14 02:17:02;;;;;;;10.77;5.90;;;5.00;99.90;;;;;;5050344;28;20108;-53
2023/02/14 02:20:05;;;;;;;14.67;5.90;;;5.00;99.90;;;;;;5050356;28;20120;-50
2023/02/14 02:22:34;;;;;;;10.50;5.50;;;5.00;99.90;;;;;;5049000;28;20056;-52
2023/02/14 02:25:23;;;;;;;9.23;5.35;;;4.90;99.90;;;;;;5050364;28;20032;-52
2023/02/14 02:27:58;;;;;;;11.00;5.27;;;4.80;99.90;;;;;;5050312;28;20316;-53
2023/02/14 02:30:24;;;;;;;11.13;5.67;;;4.70;99.90;;;;;;5050324;28;20028;-55
2023/02/14 02:33:09;;;;;;;11.07;5.70;;;4.60;99.90;;;;;;5048988;28;20493;-53
2023/02/14 02:35:49;;;;;;;9.40;5.27;;;4.60;99.90;;;;;;5048869;28;20040;-51
2023/02/14 02:38:42;;;;;;;11.00;5.73;;;4.40;99.90;;;;;;5048828;28;20087;-52
2023/02/14 02:41:35;;;;;;;9.93;5.63;;;4.40;99.90;;;;;;5050309;28;20083;-54
2023/02/14 02:44:19;;;;;;;9.97;5.43;;;4.40;99.90;;;;;;5049984;28;20043;-54
2023/02/14 02:47:03;;;;;;;11.70;6.10;;;4.40;99.90;;;;;;5050037;28;20029;-52
2023/02/14 02:53:04;;;;;;;11.27;5.80;;;4.50;99.90;;;;;;5048275;28;20225;-52
2023/02/14 02:58:49;;;;;;;9.87;5.73;;;4.60;99.90;;;;;;5048672;28;20448;-53
2023/02/14 03:01:25;;;;;;;12.93;6.37;;;4.60;99.90;;;;;;5049144;28;20056;-52
2023/02/14 03:06:44;;;;;;;10.67;6.00;;;4.60;99.90;;;;;;5052661;28;20041;-54
2023/02/14 03:09:34;;;;;;;14.13;6.60;;;4.50;99.90;;;;;;5053862;28;20033;-54
2023/02/14 03:12:28;;;;;;;11.47;6.10;;;4.50;99.90;;;;;;5049793;28;20464;-52
2023/02/14 03:15:15;;;;;;;11.10;6.13;;;4.50;99.90;;;;;;5052487;28;20029;-53
2023/02/14 03:21:14;;;;;;;11.60;6.13;;;4.60;99.90;;;;;;5053731;28;20451;-53
2023/02/14 03:24:07;;;;;;;11.70;5.93;;;4.60;99.90;;;;;;5052175;28;20489;-49
2023/02/14 03:26:44;;;;;;;11.80;5.90;;;4.60;99.90;;;;;;5053652;28;20101;-53
2023/02/14 03:30:04;;;;;;;10.63;6.20;;;4.70;99.90;;;;;;5053537;28;20481;-51
2023/02/14 03:32:35;;;;;;;11.43;5.97;;;4.60;99.90;;;;;;5050753;28;20116;-50
2023/02/14 03:35:09;;;;;;;12.73;6.70;;;4.50;99.90;;;;;;5051282;28;20040;-54
2023/02/14 03:38:06;;;;;;;12.87;6.40;;;4.50;99.90;;;;;;5053294;28;20025;-50
2023/02/14 03:40:43;;;;;;;13.37;6.63;;;4.50;99.90;;;;;;5052293;28;20029;-52
2023/02/14 03:43:17;;;;;;;12.97;7.00;;;4.50;99.90;;;;;;5052231;28;20409;-51
2023/02/14 03:45:50;;;;;;;13.60;6.73;;;4.50;99.90;;;;;;5052038;28;20029;-53
2023/02/14 03:48:19;;;;;;;17.37;8.40;;;4.40;99.90;;;;;;5053259;28;20045;-49
2023/02/14 03:50:48;;;;;;;15.60;7.95;;;4.50;99.90;;;;;;5051958;28;20500;-50
2023/02/14 03:53:19;;;;;;;15.20;8.32;;;4.50;99.90;;;;;;5053085;28;20033;-52
2023/02/14 03:56:39;;;;;;;15.23;7.90;;;4.50;99.90;;;;;;5053422;28;20036;-55
2023/02/14 03:59:09;;;;;;;13.10;6.93;;;4.40;99.90;;;;;;5050458;28;20041;-52
2023/02/14 04:01:40;;;;;;;13.77;7.23;;;4.40;99.90;;;;;;5069800;22;20045;-55
2023/02/14 04:04:07;;;;;;;15.03;7.33;;;4.40;99.90;;;;;;5092785;28;20035;-55
2023/02/14 04:06:33;;;;;;;13.20;7.30;;;4.30;99.90;;;;;;5093393;28;20134;-55
2023/02/14 04:08:59;;;;;;;13.80;7.83;;;4.30;99.90;;;;;;5093204;28;20076;-56
2023/02/14 04:11:26;;;;;;;13.50;7.40;;;4.30;99.90;;;;;;5093076;28;20103;-54
2023/02/14 04:13:51;;;;;;;17.37;7.97;;;4.20;99.90;;;;;;5092096;28;20496;-55
2023/02/14 04:16:17;;;;;;;12.50;7.67;;;4.20;99.90;;;;;;5092761;28;20115;-54
2023/02/14 04:21:27;;;;;;;14.80;8.00;;;4.20;99.90;;;;;;5092942;28;20097;-54
2023/02/14 04:23:53;;;;;;;14.90;7.93;;;4.20;99.90;;;;;;5092599;28;20555;-54
2023/02/14 04:26:19;;;;;;;15.53;8.50;;;4.20;99.90;;;;;;5092609;28;20115;-55
2023/02/14 04:28:44;;;;;;;15.73;8.00;;;4.20;99.90;;;;;;5092531;28;20028;-54
2023/02/14 04:31:10;;;;;;;15.27;7.83;;;4.20;99.90;;;;;;5092861;28;20412;-54
2023/02/14 04:33:36;;;;;;;16.27;8.43;;;4.10;99.90;;;;;;5092638;28;20035;-54
2023/02/14 04:36:02;;;;;;;18.33;8.70;;;4.10;99.90;;;;;;5092606;28;20573;-54
2023/02/14 04:38:27;;;;;;;16.03;8.30;;;4.10;99.90;;;;;;5092840;28;20059;-53
2023/02/14 04:40:53;;;;;;;14.53;8.57;;;4.10;99.90;;;;;;5092523;28;20028;-54
2023/02/14 04:43:19;;;;;;;14.97;8.53;;;4.10;99.90;;;;;;5092022;28;20043;-54
2023/02/14 04:45:46;;;;;;;17.03;9.10;;;4.10;99.90;;;;;;5092382;28;20024;-55
2023/02/14 04:48:12;;;;;;;16.57;8.50;;;4.10;99.90;;;;;;5092190;28;20472;-54
2023/02/14 04:50:37;;;;;;;14.63;8.10;;;4.10;99.90;;;;;;5092208;28;20032;-53
2023/02/14 04:53:03;;;;;;;16.43;8.67;;;4.10;99.90;;;;;;5092131;28;20032;-54
2023/02/14 04:55:29;;;;;;;18.27;8.60;;;4.10;99.90;;;;;;5092112;28;20039;-54
2023/02/14 04:57:55;;;;;;;16.63;9.03;;;4.10;99.90;;;;;;5091825;28;20550;-56
2023/02/14 05:00:21;;;;;;;15.50;8.20;;;4.00;99.90;;;;;;5092246;28;20040;-55
2023/02/14 05:02:46;;;;;;;17.53;8.97;;;4.00;99.90;;;;;;5091924;28;20032;-58
2023/02/14 05:05:12;;;;;;;19.10;9.60;;;4.00;99.90;;;;;;5091888;28;20499;-54
2023/02/14 05:07:38;;;;;;;17.60;9.77;;;4.00;99.90;;;;;;5091754;28;20103;-55
2023/02/14 05:10:04;;;;;;;15.87;9.00;;;4.00;99.90;;;;;;5091910;28;20028;-54
2023/02/14 05:12:30;;;;;;;17.53;9.03;;;4.00;99.90;;;;;;5091719;28;20025;-55
2023/02/14 05:14:56;;;;;;;19.57;9.70;;;4.00;99.90;;;;;;5091863;28;20400;-55
2023/02/14 05:17:23;;;;;;;20.30;10.10;;;4.00;99.90;;;;;;5091694;28;20503;-55
2023/02/14 05:19:48;;;;;;;18.87;9.43;;;4.00;99.90;;;;;;5090671;28;20249;-55
2023/02/14 05:22:14;;;;;;;20.30;10.10;;;4.00;99.90;;;;;;5091934;28;20448;-54
2023/02/14 05:24:40;;;;;;;20.30;11.13;;;4.10;99.90;;;;;;5090624;28;20115;-55
2023/02/14 05:27:06;;;;;;;19.27;10.40;;;4.10;99.90;;;;;;5091106;28;20035;-53
2023/02/14 05:29:32;;;;;;;21.67;10.80;;;4.10;99.90;;;;;;5091489;28;20035;-54
2023/02/14 05:31:57;;;;;;;19.87;10.60;;;4.10;99.90;;;;;;5091677;28;20387;-52
2023/02/14 05:34:23;;;;;;;18.73;9.87;;;4.10;99.90;;;;;;5091297;28;20032;-56
2023/02/14 05:36:49;;;;;;;21.97;11.23;;;4.10;99.90;;;;;;5091417;28;20028;-55
2023/02/14 05:39:15;;;;;;;22.13;10.60;;;4.10;99.90;;;;;;5091386;28;20036;-55
2023/02/14 05:41:40;;;;;;;25.27;10.50;;;4.10;99.90;;;;;;5091222;28;20035;-54
2023/02/14 05:44:06;;;;;;;21.50;10.87;;;4.00;99.90;;;;;;5089874;28;20032;-55
2023/02/14 05:46:32;;;;;;;21.87;11.17;;;4.00;99.90;;;;;;5091110;28;20127;-51
2023/02/14 05:48:58;;;;;;;22.80;11.63;;;4.00;99.90;;;;;;5091250;28;20031;-56
2023/02/14 05:51:23;;;;;;;23.73;10.93;;;4.10;99.90;;;;;;5091139;28;20028;-54
2023/02/14 05:53:49;;;;;;;20.20;10.80;;;4.20;99.90;;;;;;5091034;28;20036;-55
2023/02/14 05:56:15;;;;;;;24.73;11.57;;;4.10;99.90;;;;;;5090900;28;20035;-54
2023/02/14 05:58:40;;;;;;;23.37;11.60;;;4.10;99.90;;;;;;5090893;28;20028;-54
2023/02/14 06:01:06;;;;;;;25.37;12.13;;;4.10;99.90;;;;;;5091138;28;20036;-54
2023/02/14 06:03:32;;;;;;;21.93;11.10;;;4.10;99.90;;;;;;5090528;28;20059;-55
2023/02/14 06:05:57;;;;;;;22.80;11.73;;;4.00;99.90;;;;;;5089880;28;20069;-52
2023/02/14 06:08:23;;;;;;;21.37;11.40;;;4.00;99.90;;;;;;5090733;28;20111;-54
2023/02/14 06:10:49;;;;;;;24.63;12.17;;;3.90;99.90;;;;;;5090698;28;20028;-55
2023/02/14 06:13:14;;;;;;;27.67;12.50;;;4.00;99.90;;;;;;5090916;28;20028;-55
2023/02/14 06:15:40;;;;;;;23.07;11.07;;;3.90;99.90;;;;;;5090598;28;20055;-55
2023/02/14 06:18:06;;;;;;;26.27;13.03;;;4.00;99.90;;;;;;5089473;28;20084;-54
2023/02/14 06:20:32;;;;;;;25.90;12.90;;;4.00;99.90;;;;;;5091116;28;20106;-53
2023/02/14 06:22:58;;;;;;;27.53;13.07;;;4.00;99.90;;;;;;5090640;28;20491;-54
2023/02/14 06:25:24;;;;;;;30.37;13.90;;;4.00;99.90;;;;;;5090449;28;20024;-55
2023/02/14 06:27:50;;;;;;;28.27;12.77;;;4.00;99.90;;;;;;5089125;28;20039;-55
2023/02/14 06:30:17;;;;;;;26.97;13.17;;;4.00;99.90;;;;;;5090624;28;20417;-56
2023/02/14 06:32:43;;;;;;;28.03;13.47;;;4.00;99.90;;;;;;5090598;28;20032;-53
2023/02/14 06:35:09;;;;;;;31.70;14.03;;;4.10;99.90;;;;;;5090533;28;20118;-55
2023/02/14 06:37:34;;;;;;;24.97;12.87;;;4.10;99.90;;;;;;5090154;28;20024;-54
2023/02/14 06:40:00;;;;;;;31.50;15.23;;;4.00;99.90;;;;;;5089245;28;20540;-57
2023/02/14 06:42:26;;;;;;;30.63;14.30;;;4.00;99.90;;;;;;5090310;28;20059;-54
2023/02/14 06:44:52;;;;;;;29.00;13.33;;;4.00;99.90;;;;;;5090230;28;20058;-54
2023/02/14 06:47:18;;;;;;;27.37;13.63;;;4.00;99.90;;;;;;5090236;28;20036;-54
2023/02/14 06:49:43;;;;;;;29.63;14.27;;;4.00;99.90;;;;;;5090411;28;20450;-52
2023/02/14 06:52:10;;;;;;;29.50;14.27;;;3.90;99.90;;;;;;5090450;28;20052;-54
2023/02/14 06:54:35;;;;;;;31.13;14.00;;;3.90;99.90;;;;;;5090073;28;20031;-54
2023/02/14 06:57:01;;;;;;;32.03;14.93;;;4.00;99.90;;;;;;5090409;28;20374;-50
2023/02/14 06:59:27;;;;;;;32.90;14.53;;;4.00;99.90;;;;;;5090467;28;20025;-53
2023/02/14 07:01:52;;;;;;;34.93;15.10;;;4.00;99.90;;;;;;5088960;28;20039;-54
2023/02/14 07:04:18;;;;;;;28.00;14.53;;;4.00;99.90;;;;;;5088887;28;20071;-56
2023/02/14 07:06:45;;;;;;;30.40;14.10;;;4.00;99.90;;;;;;5090158;28;20030;-56
2023/02/14 07:09:15;;;;;;;31.87;15.27;;;4.00;99.90;;;;;;5090150;28;20031;-54
2023/02/14 07:11:41;;;;;;;33.00;15.23;;;4.00;99.90;;;;;;5090482;28;20423;-55
2023/02/14 07:14:07;;;;;;;31.87;15.20;;;4.00;99.90;;;;;;5090247;28;20290;-53
2023/02/14 07:16:32;;;;;;;32.73;15.63;;;4.00;99.90;;;;;;5090036;28;20036;-54
2023/02/14 07:18:58;;;;;;;34.67;15.63;;;4.10;99.90;;;;;;5090506;28;20024;-57
2023/02/14 07:21:24;;;;;;;32.60;15.73;;;4.10;99.90;;;;;;5090110;28;20028;-53
2023/02/14 07:23:50;;;;;;;33.57;16.10;;;4.20;99.90;;;;;;5089706;28;20032;-54
2023/02/14 07:26:17;;;;;;;34.47;16.57;;;4.30;99.90;;;;;;5090038;28;20039;-56
2023/02/14 07:28:48;;;;;;;29.63;14.93;;;4.30;99.90;;;;;;5090025;28;20027;-54
2023/02/14 07:31:15;;;;;;;37.77;16.13;;;4.30;99.90;;;;;;5090017;28;20105;-56
2023/02/14 07:33:40;;;;;;;34.10;16.27;;;4.40;99.90;;;;;;5090015;28;20035;-54
2023/02/14 07:36:07;;;;;;;33.97;15.53;;;4.40;99.90;;;;;;5090105;28;20028;-55
2023/02/14 07:38:34;;;;;;;32.67;15.73;;;4.50;99.90;;;;;;5089926;28;20036;-55
2023/02/14 07:41:00;;;;;;;34.77;15.50;;;4.50;99.90;;;;;;5089932;28;20446;-54
2023/02/14 07:43:26;;;;;;;37.17;16.73;;;4.60;99.90;;;;;;5089671;28;20069;-55
2023/02/14 07:45:51;;;;;;;33.40;16.63;;;4.60;99.90;;;;;;5090126;28;20028;-55
2023/02/14 07:48:17;;;;;;;34.67;16.83;;;4.70;99.90;;;;;;5090493;28;20023;-55
2023/02/14 07:50:43;;;;;;;33.53;17.17;;;4.70;99.90;;;;;;5093443;28;20035;-55
2023/02/14 07:53:10;;;;;;;36.57;17.30;;;4.80;99.90;;;;;;5093395;28;20201;-52
2023/02/14 07:55:36;;;;;;;34.83;16.73;;;4.80;99.90;;;;;;5093172;28;20040;-54
2023/02/14 07:58:01;;;;;;;34.40;15.90;;;4.90;99.90;;;;;;5093310;28;20039;-54
2023/02/14 08:00:27;;;;;;;33.40;15.70;;;5.00;99.90;;;;;;5093332;28;20431;-56
2023/02/14 08:02:54;;;;;;;36.37;17.10;;;5.20;99.90;;;;;;5093129;28;20082;-56
2023/02/14 08:05:21;;;;;;;36.57;17.60;;;5.20;99.90;;;;;;5092929;28;20122;-56
2023/02/14 08:07:47;;;;;;;34.67;17.07;;;5.30;99.90;;;;;;5093167;28;20039;-56
2023/02/14 08:10:14;;;;;;;34.37;16.60;;;5.30;99.90;;;;;;5093140;28;20027;-55
2023/02/14 08:12:57;;;;;;;36.07;16.87;;;5.40;99.90;;;;;;5093043;28;20400;-53
2023/02/14 08:18:19;;;;;;;29.83;14.87;;;5.60;99.90;;;;;;5093166;28;20449;-55
2023/02/14 08:20:47;;;;;;;29.47;15.00;;;5.80;99.90;;;;;;5093164;28;20032;-54
2023/02/14 08:23:13;;;;;;;30.07;14.90;;;6.10;99.90;;;;;;5092681;28;20081;-54
2023/02/14 08:25:39;;;;;;;30.60;14.83;;;6.30;99.90;;;;;;5092636;28;20032;-54
2023/02/14 08:28:05;;;;;;;31.03;14.60;;;6.50;99.90;;;;;;5093140;28;20020;-54
2023/02/14 08:30:32;;;;;;;29.13;14.57;;;6.60;99.90;;;;;;5092560;28;20488;-56
2023/02/14 08:32:57;;;;;;;29.60;14.43;;;6.70;99.90;;;;;;5092851;28;20032;-56
2023/02/14 08:35:23;;;;;;;27.10;14.37;;;6.90;99.90;;;;;;5092662;28;20519;-54
2023/02/14 08:37:49;;;;;;;27.37;14.03;;;6.90;99.90;;;;;;5092456;28;20507;-56
2023/02/14 08:40:15;;;;;;;26.60;14.07;;;7.00;99.90;;;;;;5092495;28;20062;-53
2023/02/14 08:42:41;;;;;;;28.07;14.10;;;7.10;99.90;;;;;;5092460;28;20038;-55
2023/02/14 08:45:07;;;;;;;27.97;13.53;;;7.30;99.90;;;;;;5092275;28;20020;-54
2023/02/14 08:47:34;;;;;;;26.43;13.67;;;7.40;99.90;;;;;;5092437;28;20399;-55
2023/02/14 08:50:01;;;;;;;25.90;13.37;;;7.60;99.90;;;;;;5092556;28;20054;-53
2023/02/14 08:52:27;;;;;;;26.40;13.47;;;7.80;99.90;;;;;;5092460;28;20436;-53
2023/02/14 08:54:53;;;;;;;27.80;13.20;;;7.90;99.90;;;;;;5092109;28;20059;-52
2023/02/14 08:57:19;;;;;;;26.30;13.00;;;8.10;99.90;;;;;;5091981;28;20028;-54
2023/02/14 08:59:44;;;;;;;29.53;14.57;;;8.30;99.90;;;;;;5090471;28;20055;-55
2023/02/14 09:02:12;;;;;;;24.20;12.87;;;8.60;99.90;;;;;;5091895;28;20039;-54
2023/02/14 09:04:38;;;;;;;24.97;13.17;;;8.70;99.90;;;;;;5091939;28;20032;-52
2023/02/14 09:07:04;;;;;;;24.07;13.33;;;9.10;99.90;;;;;;5091867;28;20082;-53
2023/02/14 09:09:30;;;;;;;26.27;13.47;;;9.40;99.90;;;;;;5091950;28;20020;-51
2023/02/14 09:11:56;;;;;;;26.53;14.00;;;9.70;99.90;;;;;;5091813;28;20038;-53
2023/02/14 09:14:23;;;;;;;26.67;14.00;;;9.90;99.90;;;;;;5091677;28;20028;-54
2023/02/14 09:16:49;;;;;;;28.50;13.60;;;9.90;99.90;;;;;;5091525;28;20127;-53
2023/02/14 09:19:15;;;;;;;26.00;14.30;;;10.20;99.90;;;;;;5091729;28;20090;-53
2023/02/14 09:21:40;;;;;;;23.73;13.77;;;10.40;99.90;;;;;;5091543;28;20044;-56
2023/02/14 09:24:06;;;;;;;24.27;13.80;;;10.60;99.90;;;;;;5091342;28;20103;-52
2023/02/14 09:26:32;;;;;;;24.97;13.57;;;11.00;99.90;;;;;;5091328;28;20024;-51
2023/02/14 09:28:58;;;;;;;24.20;13.53;;;11.30;99.90;;;;;;5091352;28;20053;-55
2023/02/14 09:31:24;;;;;;;24.27;12.88;;;11.90;99.90;;;;;;5091454;28;20032;-54
2023/02/14 09:36:35;;;;;;;22.88;13.10;;;12.90;99.90;;;;;;5091264;28;20122;-53
2023/02/14 09:39:01;;;;;;;24.02;13.38;;;13.30;99.70;;;;;;5091345;28;20040;-55
2023/02/14 09:41:29;;;;;;;20.83;12.90;;;13.60;99.50;;;;;;5091133;28;20039;-52
2023/02/14 09:44:06;;;;;;;19.98;13.85;;;13.80;98.20;;;;;;5091033;28;20031;-53
2023/02/14 09:46:40;;;;;;;18.98;12.07;;;14.30;97.60;;;;;;5090952;28;20024;-53
2023/02/14 09:49:12;;;;;;;20.42;13.23;;;14.80;96.40;;;;;;5091050;28;20028;-51
2023/02/14 09:51:43;;;;;;;19.13;12.38;;;15.10;94.90;;;;;;5090968;28;20080;-54
2023/02/14 09:54:14;;;;;;;21.00;12.88;;;15.50;94.30;;;;;;5091175;28;20032;-56
2023/02/14 09:57:09;;;;;;;19.30;12.40;;;16.00;93.40;;;;;;5090994;28;20035;-53
2023/02/14 09:59:40;;;;;;;30.65;13.30;;;16.70;92.70;;;;;;5091076;28;20036;-56
2023/02/14 10:02:09;;;;;;;22.85;12.70;;;17.70;90.40;;;;;;5090760;28;20027;-53
2023/02/14 10:04:39;;;;;;;;;;;17.30;89.60;;;;;;5091145;28;20028;-56
2023/02/14 10:07:29;;;;;;;17.92;12.32;;;17.60;86.30;;;;;;5090628;28;19915;-54
2023/02/14 10:10:15;;;;;;;20.85;12.50;;;17.50;85.80;;;;;;5090781;28;20511;-56
2023/02/14 10:12:55;;;;;;;17.50;12.00;;;18.40;82.00;;;;;;5090438;28;20085;-54
2023/02/14 10:15:26;;;;;;;16.92;12.35;;;19.30;78.00;;;;;;5090704;28;20051;-55
2023/02/14 10:17:57;;;;;;;17.20;12.63;;;18.80;78.10;;;;;;5090793;28;20032;-56
2023/02/14 10:20:25;;;;;;;15.32;11.68;;;18.50;76.30;;;;;;5090841;28;20036;-55
2023/02/14 10:23:21;;;;;;;17.85;12.05;;;18.80;77.30;;;;;;5090485;28;20123;-55
2023/02/14 10:26:09;;;;;;;16.60;12.13;;;19.80;72.90;;;;;;5090653;28;20110;-56
2023/02/14 10:28:43;;;;;;;19.70;12.27;;;20.00;71.30;;;;;;5090453;28;20028;-55
2023/02/14 10:31:54;;;;;;;21.20;14.98;;;20.30;69.70;;;;;;5090468;28;20047;-57
2023/02/14 10:34:22;;;;;;;16.67;12.07;;;20.40;69.30;;;;;;5083286;28;20040;-56
2023/02/14 10:37:08;;;;;;;;;;;20.80;67.00;;;;;;5090985;28;20392;-56
2023/02/14 10:39:52;;;;;;;17.90;12.40;;;20.30;68.10;;;;;;5090946;28;19908;-56
2023/02/14 10:42:20;;;;;;;18.70;13.13;;;20.40;68.00;;;;;;5090429;28;20076;-56
2023/02/14 10:44:57;;;;;;;;;;;20.60;65.70;;;;;;5091071;28;20033;-57
2023/02/14 10:47:45;;;;;;;19.17;12.07;;;20.90;65.00;;;;;;5090344;28;19908;-56
2023/02/14 10:50:14;;;;;;;;;;;21.00;65.00;;;;;;5091057;28;20358;-56
2023/02/14 10:53:00;;;;;;;17.05;11.98;;;20.90;63.10;;;;;;5090774;28;19908;-59
2023/02/14 10:55:57;;;;;;;17.85;12.90;;;20.10;65.40;;;;;;5090412;28;20494;-58
2023/02/14 10:58:25;;;;;;;17.00;10.88;;;20.90;65.00;;;;;;5090087;28;20115;-55
2023/02/14 11:01:02;;;;;;;17.25;12.82;;;21.60;62.40;;;;;;5090373;28;20028;-56
2023/02/14 11:03:28;;;;;;;17.15;12.30;;;22.20;60.80;;;;;;5089948;28;20032;-56
2023/02/14 11:05:55;;;;;;;18.27;12.50;;;22.40;60.20;;;;;;5090262;28;20499;-56
2023/02/14 11:08:39;;;;;;;15.77;12.82;;;22.50;59.30;;;;;;5090008;28;20081;-56
2023/02/14 11:11:33;;;;;;;18.60;12.82;;;22.80;57.90;;;;;;5090033;28;20039;-56
2023/02/14 11:14:17;;;;;;;17.17;13.50;;;22.20;58.20;;;;;;5090176;28;20041;-57
2023/02/14 11:16:42;;;;;;;17.30;12.75;;;20.70;61.30;;;;;;5090097;28;20056;-57
2023/02/14 11:19:17;;;;;;;17.17;12.40;;;20.50;63.40;;;;;;5090582;28;20121;-55
2023/02/14 11:21:45;;;;;;;18.38;12.45;;;19.80;63.40;;;;;;5090350;28;20028;-55
2023/02/14 11:24:33;;;;;;;16.30;12.48;;;20.40;62.20;;;;;;5093814;28;20514;-57
2023/02/14 11:27:11;;;;;;;16.38;12.10;;;20.40;62.10;;;;;;5093780;28;20032;-56
2023/02/14 11:29:40;;;;;;;16.83;12.48;;;20.00;61.40;;;;;;5093850;28;20024;-55
2023/02/14 11:32:08;;;;;;;17.98;13.73;;;20.60;61.50;;;;;;5094025;28;20384;-56
2023/02/14 11:34:40;;;;;;;16.40;12.23;;;20.10;61.70;;;;;;5093707;28;20020;-56
2023/02/14 11:37:42;;;;;;;17.40;11.15;;;20.20;62.30;;;;;;5093622;28;20024;-58
2023/02/14 11:40:42;;;;;;;17.10;12.25;;;20.70;61.70;;;;;;5086492;28;20055;-56
2023/02/14 11:43:14;;;;;;;17.95;12.30;;;21.50;59.20;;;;;;5093245;28;20458;-55
2023/02/14 11:46:01;;;;;;;16.95;11.98;;;21.40;59.50;;;;;;5093573;28;20085;-55
2023/02/14 11:48:27;;;;;;;18.75;11.98;;;21.00;60.70;;;;;;5093186;28;20396;-56
2023/02/14 11:51:09;;;;;;;34.15;15.13;;;21.30;59.10;;;;;;5093402;28;20494;-56
2023/02/14 11:53:50;;;;;;;18.55;12.20;;;21.40;59.60;;;;;;5093332;28;20028;-56
2023/02/14 11:56:19;;;;;;;16.80;12.95;;;21.40;58.70;;;;;;5093434;28;20081;-57
2023/02/14 11:59:02;;;;;;;15.73;11.63;;;20.50;60.70;;;;;;5093365;28;20034;-55
2023/02/14 12:01:33;;;;;;;15.75;11.50;;;20.20;61.50;;;;;;5093268;28;20074;-54
2023/02/14 12:04:03;;;;;;;17.15;12.32;;;19.30;61.60;;;;;;5093105;28;20035;-56
2023/02/14 12:06:32;;;;;;;19.00;11.82;;;18.30;64.40;;;;;;5093051;28;20024;-55
2023/02/14 12:09:25;;;;;;;20.38;11.55;;;19.30;64.00;;;;;;5093271;28;20032;-56
2023/02/14 12:11:54;;;;;;;15.43;11.60;;;19.30;63.30;;;;;;5093359;28;20069;-57
2023/02/14 12:14:22;;;;;;;14.70;10.98;;;20.70;60.60;;;;;;5092958;28;20024;-56
2023/02/14 12:17:11;;;;;;;17.42;12.45;;;21.60;58.90;;;;;;5092883;28;20043;-57
2023/02/14 12:20:14;;;;;;;17.15;11.50;;;22.10;57.10;;;;;;5092830;28;20093;-56
2023/02/14 12:22:51;;;;;;;16.55;12.55;;;22.00;56.30;;;;;;5085784;28;20117;-56
2023/02/14 12:25:47;;;;;;;14.70;10.90;;;20.90;58.40;;;;;;5092825;28;20123;-56
2023/02/14 12:28:18;;;;;;;17.95;13.35;;;20.80;59.40;;;;;;5092859;28;20024;-57
2023/02/14 12:30:44;;;;;;;18.38;12.82;;;19.70;61.40;;;;;;5092991;28;20185;-55
2023/02/14 12:33:20;;;;;;;18.15;12.13;;;18.80;63.00;;;;;;5092711;28;20555;-55
2023/02/14 12:36:02;;;;;;;18.90;11.82;;;18.20;65.50;;;;;;5091992;28;20059;-54
2023/02/14 12:38:37;;;;;;;16.55;11.00;;;18.60;65.20;;;;;;5092401;28;20114;-57
2023/02/14 12:41:05;;;;;;;17.88;12.05;;;19.40;63.10;;;;;;5092787;28;20247;-54
2023/02/14 12:43:49;;;;;;;19.88;12.32;;;19.90;62.70;;;;;;5092209;28;20039;-55
2023/02/14 12:46:21;;;;;;;16.80;12.35;;;20.20;60.70;;;;;;5092542;28;20055;-56
2023/02/14 12:49:23;;;;;;;16.63;11.68;;;20.30;61.80;;;;;;5092292;28;20024;-57
2023/02/14 12:52:36;;;;;;;16.90;12.63;;;21.70;59.90;;;;;;5091208;28;20085;-58
2023/02/14 12:55:38;;;;;;;16.17;11.63;;;22.20;56.80;;;;;;5073181;28;20048;-57
2023/02/14 12:58:36;;;;;;;16.73;11.48;;;23.20;55.30;;;;;;5092245;28;20116;-57
2023/02/14 13:01:23;;;;;;;15.52;12.02;;;23.60;54.70;;;;;;5092250;28;20028;-57
2023/02/14 13:04:19;;;;;;;17.00;12.57;;;22.70;54.20;;;;;;5092007;28;20060;-56
2023/02/14 13:06:57;;;;;;;15.45;10.90;;;22.00;56.10;;;;;;5092032;28;20032;-56
2023/02/14 13:09:45;;;;;;;15.25;11.45;;;21.90;56.50;;;;;;5092166;28;20036;-57
2023/02/14 13:12:13;;;;;;;18.77;12.50;;;21.60;58.20;;;;;;5090901;28;20036;-57
2023/02/14 13:15:00;;;;;;;17.08;12.68;;;21.00;57.50;;;;;;5091958;28;20024;-57
2023/02/14 13:17:39;;;;;;;16.05;12.32;;;20.30;59.10;;;;;;5092042;28;20166;-56
2023/02/14 13:20:07;;;;;;;17.52;12.50;;;20.50;59.40;;;;;;5092011;28;20023;-58
2023/02/14 13:22:34;;;;;;;;;;;20.10;58.80;;;;;;5092620;28;20445;-55
2023/02/14 13:25:05;;;;;;;15.73;11.65;;;20.30;59.00;;;;;;5091746;28;20049;-56